createdAt,value
2019-04-30T00:01:26.914Z,4.3
2019-04-30T00:06:27.284Z,4.2
2019-04-30T00:11:26.423Z,4.2
2019-04-30T00:16:26.473Z,4.1
2019-04-30T00:21:26.607Z,4.1
2019-04-30T00:26:26.700Z,3.9
2019-04-30T00:31:27.522Z,3.9
2019-04-30T00:36:27.545Z,3.8
2019-04-30T00:41:26.959Z,3.8
2019-04-30T00:46:29.164Z,3.7
2019-04-30T00:51:26.566Z,3.7
2019-04-30T00:56:28.163Z,3.7
2019-04-30T01:01:26.468Z,3.7
2019-04-30T01:06:28.572Z,3.6
2019-04-30T01:11:27.048Z,3.6
2019-04-30T01:16:30.191Z,3.4
2019-04-30T01:21:28.517Z,3.4
2019-04-30T01:26:27.757Z,3.3
2019-04-30T01:31:31.727Z,3.3
2019-04-30T01:36:26.322Z,3.2
2019-04-30T01:41:27.604Z,3.2
2019-04-30T01:46:26.292Z,3.2
2019-04-30T01:51:26.385Z,3.2
2019-04-30T01:56:28.927Z,3.1
2019-04-30T02:01:26.305Z,3.1
2019-04-30T02:06:26.551Z,2.9
2019-04-30T02:11:26.377Z,2.9
2019-04-30T02:16:28.780Z,2.9
2019-04-30T02:21:27.251Z,2.9
2019-04-30T02:26:26.312Z,2.8
2019-04-30T02:31:26.459Z,2.8
2019-04-30T02:36:26.717Z,2.7
2019-04-30T02:41:28.688Z,2.7
2019-04-30T02:46:31.983Z,2.7
2019-04-30T02:51:26.286Z,2.7
2019-04-30T02:56:27.019Z,2.6
2019-04-30T03:01:26.858Z,2.6
2019-04-30T03:06:29.723Z,2.4
2019-04-30T03:11:29.884Z,2.4
2019-04-30T03:16:26.263Z,2.3
2019-04-30T03:21:29.053Z,2.3
2019-04-30T03:26:29.609Z,2.3
2019-04-30T03:31:26.921Z,2.3
2019-04-30T03:36:27.036Z,2.2
2019-04-30T03:41:33.104Z,2.2
2019-04-30T03:46:26.380Z,2.1
2019-04-30T03:51:26.446Z,2.1
2019-04-30T03:56:29.615Z,2.1
2019-04-30T04:01:29.318Z,2.1
2019-04-30T04:06:29.123Z,2
2019-04-30T04:11:26.468Z,2
2019-04-30T04:16:31.767Z,1.9
2019-04-30T04:21:29.810Z,1.9
2019-04-30T04:26:29.669Z,1.9
2019-04-30T04:31:29.645Z,1.9
2019-04-30T04:36:29.942Z,1.9
2019-04-30T04:41:26.541Z,1.9
2019-04-30T04:46:26.621Z,1.9
2019-04-30T04:51:36.585Z,1.9
2019-04-30T04:56:26.995Z,1.9
2019-04-30T05:01:28.876Z,1.9
2019-04-30T05:06:29.629Z,2
2019-04-30T05:11:26.543Z,2
2019-04-30T05:16:26.683Z,2.2
2019-04-30T05:21:26.710Z,2.2
2019-04-30T05:26:28.567Z,2.5
2019-04-30T05:31:28.602Z,2.5
2019-04-30T05:36:29.078Z,2.8
2019-04-30T05:41:28.982Z,2.8
2019-04-30T05:46:27.215Z,3.3
2019-04-30T05:51:28.853Z,3.3
2019-04-30T05:56:30.158Z,3.8
2019-04-30T06:01:26.533Z,3.8
2019-04-30T06:06:28.879Z,4.4
2019-04-30T06:11:29.224Z,4.4
2019-04-30T06:16:27.345Z,5.1
2019-04-30T06:21:26.828Z,5.1
2019-04-30T06:26:26.955Z,5.7
2019-04-30T06:31:34.839Z,5.7
2019-04-30T06:36:28.522Z,6.4
2019-04-30T06:41:27.064Z,6.4
2019-04-30T06:46:28.657Z,7.2
2019-04-30T06:51:26.722Z,7.2
2019-04-30T06:56:28.839Z,8
2019-04-30T07:01:28.898Z,8
2019-04-30T07:06:29.545Z,8.8
2019-04-30T07:11:29.315Z,8.8
2019-04-30T07:16:26.548Z,9.4
2019-04-30T07:21:26.526Z,9.4
2019-04-30T07:26:28.767Z,11
2019-04-30T07:31:29.398Z,11
2019-04-30T07:36:43.281Z,12.5
2019-04-30T07:41:26.541Z,12.5
2019-04-30T07:46:26.688Z,12.9
2019-04-30T07:51:27.938Z,12.9
2019-04-30T07:56:29.289Z,13.2
2019-04-30T08:01:26.552Z,13.2
2019-04-30T08:06:26.895Z,13.8
2019-04-30T08:11:26.755Z,13.8
2019-04-30T08:16:28.781Z,14.1
2019-04-30T08:21:28.741Z,14.1
2019-04-30T08:26:28.683Z,14.7
2019-04-30T08:31:29.073Z,14.7
2019-04-30T08:36:29.634Z,15.1
2019-04-30T08:41:26.901Z,15.1
2019-04-30T08:46:28.702Z,15.4
2019-04-30T08:51:30.550Z,15.4
2019-04-30T08:56:26.971Z,15.8
2019-04-30T09:01:29.206Z,15.8
2019-04-30T09:06:28.653Z,15.7
2019-04-30T09:11:32.207Z,15.7
2019-04-30T09:16:27.073Z,15.9
2019-04-30T09:21:29.826Z,15.9
2019-04-30T09:26:28.897Z,16.8
2019-04-30T09:31:29.399Z,16.8
2019-04-30T09:36:29.276Z,17.4
2019-04-30T09:41:28.807Z,17.4
2019-04-30T09:46:29.680Z,17.7
2019-04-30T09:51:29.866Z,17.7
2019-04-30T09:56:26.736Z,17.5
2019-04-30T10:01:26.792Z,17.5
2019-04-30T10:06:39.387Z,17.6
2019-04-30T10:11:27.510Z,17.6
2019-04-30T10:16:27.027Z,18.2
2019-04-30T10:21:28.918Z,18.2
2019-04-30T10:26:27.333Z,18.4
2019-04-30T10:31:29.211Z,18.4
2019-04-30T10:36:29.523Z,18.6
2019-04-30T10:41:28.741Z,18.6
2019-04-30T10:46:27.499Z,18.9
2019-04-30T10:51:28.846Z,18.9
2019-04-30T10:56:26.837Z,19.1
2019-04-30T11:01:26.722Z,19.1
2019-04-30T11:06:27.465Z,19.1
2019-04-30T11:11:28.287Z,19.1
2019-04-30T11:16:29.662Z,19.2
2019-04-30T11:21:26.938Z,19.2
2019-04-30T11:26:31.195Z,20.1
2019-04-30T11:31:27.139Z,20.1
2019-04-30T11:36:29.039Z,20.8
2019-04-30T11:41:30.940Z,20.8
2019-04-30T11:46:28.722Z,20.4
2019-04-30T11:51:29.386Z,20.4
2019-04-30T11:56:27.474Z,20.1
2019-04-30T12:01:26.761Z,20.1
2019-04-30T12:06:28.562Z,21
2019-04-30T12:11:27.166Z,21
2019-04-30T12:16:28.541Z,21.1
2019-04-30T12:21:27.226Z,21.1
2019-04-30T12:26:28.905Z,21
2019-04-30T12:31:29.643Z,21
2019-04-30T12:36:28.942Z,20.7
2019-04-30T12:41:27.625Z,20.7
2019-04-30T12:46:28.788Z,20.8
2019-04-30T12:51:27.107Z,20.8
2019-04-30T12:56:27.412Z,20.7
2019-04-30T13:01:31.746Z,20.7
2019-04-30T13:06:28.016Z,20.9
2019-04-30T13:11:30.285Z,20.9
2019-04-30T13:16:29.172Z,20.8
2019-04-30T13:21:28.458Z,20.8
2019-04-30T13:26:28.586Z,20.6
2019-04-30T13:31:29.457Z,20.6
2019-04-30T13:36:27.804Z,20.2
2019-04-30T13:41:26.910Z,20.2
2019-04-30T13:46:28.487Z,20.1
2019-04-30T13:51:27.752Z,20.1
2019-04-30T13:56:28.700Z,19.9
2019-04-30T14:01:29.246Z,19.9
2019-04-30T14:06:28.935Z,19.8
2019-04-30T14:11:27.302Z,19.8
2019-04-30T14:16:27.808Z,19.8
2019-04-30T14:21:33.165Z,19.8
2019-04-30T14:26:29.232Z,20.1
2019-04-30T14:31:28.790Z,20.1
2019-04-30T14:36:29.094Z,20.5
2019-04-30T14:41:31.846Z,20.5
2019-04-30T14:46:29.350Z,20.7
2019-04-30T14:51:27.147Z,20.7
2019-04-30T14:56:29.382Z,20.6
2019-04-30T15:01:29.323Z,20.6
2019-04-30T15:06:27.557Z,20.2
2019-04-30T15:11:28.870Z,20.2
2019-04-30T15:16:27.608Z,20.1
2019-04-30T15:21:27.607Z,20.1
2019-04-30T15:26:28.735Z,19.8
2019-04-30T15:31:27.136Z,19.8
2019-04-30T15:36:29.165Z,19.6
2019-04-30T15:41:27.582Z,19.6
2019-04-30T15:46:27.762Z,19.6
2019-04-30T15:51:27.962Z,19.6
2019-04-30T15:56:35.204Z,19.6
2019-04-30T16:01:29.088Z,19.6
2019-04-30T16:06:28.597Z,19.7
2019-04-30T16:11:29.463Z,19.7
2019-04-30T16:16:28.052Z,19.7
2019-04-30T16:21:29.179Z,19.7
2019-04-30T16:26:29.098Z,19.2
2019-04-30T16:31:29.136Z,19.2
2019-04-30T16:36:29.121Z,18.9
2019-04-30T16:41:31.375Z,18.9
2019-04-30T16:46:27.155Z,18.6
2019-04-30T16:51:28.891Z,18.6
2019-04-30T16:56:28.631Z,18.3
2019-04-30T17:01:27.718Z,18.3
2019-04-30T17:06:27.986Z,17.9
2019-04-30T17:11:28.295Z,17.9
2019-04-30T17:16:27.170Z,17.6
2019-04-30T17:21:29.642Z,17.6
2019-04-30T17:26:27.872Z,17.3
2019-04-30T17:31:28.090Z,17.3
2019-04-30T17:36:27.232Z,17.1
2019-04-30T17:41:27.365Z,17.1
2019-04-30T17:46:28.502Z,16.8
2019-04-30T17:51:27.798Z,16.8
2019-04-30T17:56:27.944Z,16.6
2019-04-30T18:01:28.036Z,16.6
2019-04-30T18:06:27.568Z,16.4
2019-04-30T18:11:29.593Z,16.4
2019-04-30T18:16:28.664Z,16.2
2019-04-30T18:21:27.955Z,16.2
2019-04-30T18:26:28.194Z,15.9
2019-04-30T18:31:27.369Z,15.9
2019-04-30T18:36:29.331Z,15.7
2019-04-30T18:41:27.619Z,15.7
2019-04-30T18:46:29.218Z,15.3
2019-04-30T18:51:38.356Z,15.3
2019-04-30T18:56:29.002Z,15.1
2019-04-30T19:01:28.130Z,15.1
2019-04-30T19:06:29.508Z,14.8
2019-04-30T19:11:28.932Z,14.8
2019-04-30T19:16:28.249Z,14.4
2019-04-30T19:21:27.409Z,14.4
2019-04-30T19:26:29.301Z,14.2
2019-04-30T19:31:29.496Z,14.2
2019-04-30T19:36:37.269Z,13.8
2019-04-30T19:41:28.739Z,13.8
2019-04-30T19:46:29.431Z,13.6
2019-04-30T19:51:29.514Z,13.6
2019-04-30T19:56:30.301Z,13.3
2019-04-30T20:01:28.695Z,13.3
2019-04-30T20:06:28.687Z,13.1
2019-04-30T20:11:27.935Z,13.1
2019-04-30T20:16:28.341Z,12.8
2019-04-30T20:21:31.906Z,12.8
2019-04-30T20:26:28.227Z,12.6
2019-04-30T20:31:28.743Z,12.6
2019-04-30T20:36:28.883Z,12.3
2019-04-30T20:41:28.695Z,12.3
2019-04-30T20:46:34.639Z,12.1
2019-04-30T20:51:29.049Z,12.1
2019-04-30T20:56:29.168Z,11.8
2019-04-30T21:01:29.426Z,11.8
2019-04-30T21:06:29.620Z,11.6
2019-04-30T21:11:28.276Z,11.6
2019-04-30T21:16:28.086Z,11.2
2019-04-30T21:21:28.811Z,11.2
2019-04-30T21:26:28.176Z,10.9
2019-04-30T21:31:28.263Z,10.9
2019-04-30T21:36:28.489Z,10.7
2019-04-30T21:41:29.661Z,10.7
2019-04-30T21:46:29.325Z,10.4
2019-04-30T21:51:27.645Z,10.4
2019-04-30T21:56:27.733Z,10.2
2019-04-30T22:01:28.025Z,10.2
2019-04-30T22:06:29.639Z,9.9
2019-04-30T22:11:29.616Z,9.9
2019-04-30T22:16:29.687Z,9.8
2019-04-30T22:21:28.300Z,9.8
2019-04-30T22:26:28.278Z,9.6
2019-04-30T22:31:29.679Z,9.6
2019-04-30T22:36:29.014Z,9.4
2019-04-30T22:41:29.640Z,9.4
2019-04-30T22:46:29.344Z,9.3
2019-04-30T22:51:27.889Z,9.3
2019-04-30T22:56:28.055Z,9.2
2019-04-30T23:01:28.242Z,9.2
2019-04-30T23:06:28.595Z,9.2
2019-04-30T23:11:28.381Z,9.2
2019-04-30T23:16:28.696Z,9.2
2019-04-30T23:21:27.928Z,9.2
2019-04-30T23:26:28.015Z,9.1
2019-04-30T23:31:28.208Z,9.1
2019-04-30T23:36:27.684Z,9.1
2019-04-30T23:41:27.887Z,9.1
2019-04-30T23:46:28.062Z,9.1
2019-04-30T23:51:28.394Z,9.1
2019-04-30T23:56:28.597Z,9.1
